Culiacan International Airport
MMCL : now visible

Airfield :











YOU CAN JOIN US ON...

 
LOGIN :

Register | Disclaimer

   EN    FR    IT 

 









Legend :    VFR   Marginal VFR   IFR   Intensive IFR   Very Intensive IFR
Visi :
Ceiling :
>= 8 km
>= 3000ft
5 to 8 km
1000 to 3000 ft
1500m to 5 km
500 to 1000 ft
800 to 1500m
200 to 500 ft
< 800m
< 200 ft
Symbols :   Thunderstorms  Fog  Heavy snow  Heavy precipitations  Wind > 20 kt






- Airport Elevation : 108 ft
- IATA code : CUL


MMCL - Culiacan International

CURRENT METAR :
  • 311940Z 30004KT 8SM SCT015 OVC025 28/21 A2987 RMK 8/5// BINOVC HZY

EXPIRED METARs :
  • 311844Z 20003KT 8SM SCT015 OVC025 27/20 A2989 RMK 8/5// HZY
  • 311743Z 18007KT 8SM SCT015 OVC025 26/20 A2990 RMK SLP123 57004 919 8/5// HZY

TAF TAF MMCL
Valid from the 31 at 18:00 until the 01 at 18:00 UTC


311711Z 3118/0118 20010KT P6SM SCT015 OVC025
BECMG 3120/3121 24015KT SCT015
FM010300 15010KT P6SM BKN015
BECMG 0117/0118 22010KT SCT015
MMFR FIR / North America



MET'MAP, your aeronautical weather chart ! - Copyright ORBIFLY December 2007 - Disclaimer

ORBIFLY MET'MAP TEAM :

Programming & Development : Alexandra Zaïnal
Concept & original design : Baudouin d'Aumeries
Assistance for programming : Marc-Olivier Méhu
Technical & hardware support : Manuel Goepfert

Contact : metmap@orbifly.com




SOURCES & CREDITS :

   NOAA       Earth
Advisory